Time;durP1;ratioP1;P1;durP2;ratioP2;P2;SDS_P1;SDS_P2;PMS_P1;PMS_P2;Temp;Humidity;BMP_temperature;BMP_pressure;BME280_temperature;BME280_humidity;BME280_pressure;Samples;Min_cycle;Max_cycle;Signal;HPM_P1;HPM_P2
2021/12/21 00:01:32;;;;;;;26.30;11.77;;;1.30;98.90;;;-1.90;100.00;101715.41;4989305;28;20046;-78
2021/12/21 00:04:00;;;;;;;28.27;11.13;;;1.30;98.80;;;-1.91;100.00;101711.84;4989341;28;20057;-78
2021/12/21 00:06:28;;;;;;;22.85;11.38;;;1.30;98.80;;;-1.92;100.00;101718.13;4989744;28;20042;-78
2021/12/21 00:08:55;;;;;;;25.20;10.13;;;1.30;98.80;;;-1.90;100.00;101720.72;4989794;28;20519;-78
2021/12/21 00:11:23;;;;;;;23.92;11.00;;;1.30;98.80;;;-1.91;100.00;101714.50;4989352;28;20129;-78
2021/12/21 00:14:10;;;;;;;24.80;11.13;;;1.30;98.90;;;-1.91;100.00;101714.50;4989304;28;20093;-78
2021/12/21 00:17:04;;;;;;;27.10;11.27;;;1.20;98.70;;;-1.99;100.00;101712.22;4989271;28;20132;-78
2021/12/21 00:19:53;;;;;;;24.38;10.70;;;1.20;98.70;;;-2.02;100.00;101709.72;4991848;28;20511;-78
2021/12/21 00:25:15;;;;;;;26.13;11.07;;;1.10;98.80;;;-2.14;100.00;101710.28;4964778;28;20167;-78
2021/12/21 00:27:44;;;;;;;27.45;11.88;;;1.10;98.90;;;-2.08;100.00;101709.97;4989128;28;20046;-78
2021/12/21 00:30:13;;;;;;;25.60;11.95;;;1.10;99.10;;;-2.06;100.00;101705.44;4989256;28;20045;-78
2021/12/21 00:32:40;;;;;;;21.65;10.77;;;1.10;99.20;;;-2.03;100.00;101705.28;4988744;28;20641;-78
2021/12/21 00:35:08;;;;;;;28.90;11.70;;;1.10;98.90;;;-2.06;100.00;101702.75;4989302;28;20077;-78
2021/12/21 00:37:41;;;;;;;26.70;11.60;;;1.10;98.80;;;-2.11;100.00;101707.47;4989131;28;20081;-78
2021/12/21 00:40:10;;;;;;;28.60;11.65;;;1.10;98.80;;;-2.14;100.00;101702.28;4989386;28;20081;-78
2021/12/21 00:42:38;;;;;;;29.52;11.52;;;1.00;98.40;;;-2.07;100.00;101693.06;4988986;28;20134;-78
2021/12/21 00:45:07;;;;;;;24.23;11.25;;;1.00;98.80;;;-2.11;100.00;101690.59;4988633;28;20121;-78
2021/12/21 00:47:35;;;;;;;24.92;11.90;;;1.00;98.90;;;-2.20;100.00;101690.09;4989301;28;20066;-78
2021/12/21 00:50:04;;;;;;;27.25;11.00;;;1.00;98.60;;;-2.21;100.00;101690.16;4988966;28;20054;-77
2021/12/21 00:52:31;;;;;;;30.05;11.20;;;1.00;98.50;;;-2.24;100.00;101685.00;4988992;28;20149;-77
2021/12/21 00:55:00;;;;;;;27.15;11.30;;;1.00;98.40;;;-2.27;100.00;101690.47;4988890;28;20050;-77
2021/12/21 00:57:27;;;;;;;27.10;11.02;;;1.00;98.30;;;-2.22;100.00;101685.78;4988897;28;20050;-77
2021/12/21 00:59:54;;;;;;;22.40;11.45;;;1.00;98.40;;;-2.24;100.00;101685.88;4988775;28;20137;-77
2021/12/21 01:02:22;;;;;;;26.80;10.93;;;1.00;98.60;;;-2.29;100.00;101681.69;4987244;28;20145;-77
2021/12/21 01:04:50;;;;;;;25.88;11.18;;;0.90;98.40;;;-2.27;100.00;101679.81;4988551;28;20053;-77
2021/12/21 01:07:24;;;;;;;24.00;10.85;;;0.90;98.40;;;-2.23;100.00;101673.38;4988825;28;20066;-77
2021/12/21 01:10:23;;;;;;;26.60;11.23;;;0.90;98.50;;;-2.20;100.00;101681.25;4988926;28;20058;-77
2021/12/21 01:12:57;;;;;;;23.75;10.23;;;0.90;98.60;;;-2.19;100.00;101677.63;4988406;28;20057;-78
2021/12/21 01:15:42;;;;;;;25.45;11.63;;;0.90;98.80;;;-2.16;100.00;101669.50;4989527;28;20521;-77
2021/12/21 01:18:14;;;;;;;24.60;11.15;;;0.90;98.70;;;-2.26;100.00;101670.88;4992833;28;20038;-77
2021/12/21 01:20:48;;;;;;;27.80;11.30;;;0.90;98.50;;;-2.40;100.00;101672.41;4992520;28;20053;-77
2021/12/21 01:23:47;;;;;;;24.35;10.98;;;0.90;98.30;;;-2.44;100.00;101672.59;4992274;28;20149;-77
2021/12/21 01:26:21;;;;;;;24.05;11.38;;;0.80;98.20;;;-2.43;100.00;101672.53;4992374;28;20045;-77
2021/12/21 01:28:57;;;;;;;23.38;11.95;;;0.80;98.50;;;-2.46;100.00;101670.00;4972660;28;20047;-77
2021/12/21 01:31:32;;;;;;;25.23;10.90;;;0.80;98.30;;;-2.49;100.00;101669.31;4972694;28;20058;-77
2021/12/21 01:34:13;;;;;;;22.17;10.82;;;0.80;98.40;;;-2.48;100.00;101669.22;4955239;28;20053;-77
2021/12/21 01:36:48;;;;;;;21.65;9.98;;;0.80;98.30;;;-2.47;100.00;101673.63;4972907;28;20078;-77
2021/12/21 01:39:43;;;;;;;24.55;11.43;;;0.80;98.40;;;-2.48;100.00;101671.88;4973058;28;20038;-77
2021/12/21 01:42:12;;;;;;;25.30;11.95;;;0.80;98.30;;;-2.41;100.00;101665.34;4972419;28;20054;-77
2021/12/21 01:49:34;;;;;;;26.25;12.32;;;0.80;98.90;;;-2.33;100.00;101672.09;4972826;28;20043;-77
2021/12/21 01:50:15;;;;;;;25.10;11.45;;;0.80;98.90;;;-2.40;100.00;101669.75;4972825;28;20263;-77
2021/12/21 01:52:44;;;;;;;28.65;11.82;;;0.70;98.80;;;-2.45;100.00;101669.09;4972635;28;20125;-77
2021/12/21 01:55:11;;;;;;;27.80;12.15;;;0.70;98.70;;;-2.46;100.00;101667.34;4972540;28;20051;-77
2021/12/21 01:57:38;;;;;;;28.40;11.77;;;0.70;98.80;;;-2.51;100.00;101666.72;4972719;28;20039;-77
2021/12/21 02:00:10;;;;;;;27.10;10.85;;;0.70;98.60;;;-2.50;100.00;101668.44;4972509;28;20499;-77
2021/12/21 02:02:37;;;;;;;25.50;11.23;;;0.70;98.60;;;-2.52;100.00;101666.78;4972216;28;20126;-77
2021/12/21 02:05:06;;;;;;;24.60;11.80;;;0.70;98.80;;;-2.53;100.00;101659.72;4972215;28;20141;-77
2021/12/21 02:07:34;;;;;;;25.02;10.95;;;0.70;98.70;;;-2.60;100.00;101665.34;4970713;28;20133;-77
2021/12/21 02:10:01;;;;;;;30.60;11.20;;;0.70;98.70;;;-2.59;100.00;101658.19;4972241;28;20051;-77
2021/12/21 02:12:28;;;;;;;28.10;11.90;;;0.60;98.70;;;-2.54;100.00;101663.31;4972074;28;20065;-77
2021/12/21 02:14:57;;;;;;;29.08;11.65;;;0.60;98.60;;;-2.53;100.00;101660.59;4970432;28;20701;-77
2021/12/21 02:18:07;;;;;;;22.88;11.25;;;0.60;98.70;;;-2.60;100.00;101664.47;4993476;28;20047;-77
2021/12/21 02:20:44;;;;;;;24.98;11.38;;;0.60;98.40;;;-2.59;100.00;101658.19;4991774;28;20043;-77
2021/12/21 02:23:15;;;;;;;25.02;11.70;;;0.60;98.60;;;-2.62;100.00;101659.22;4991071;28;20050;-77
2021/12/21 02:26:03;;;;;;;;;;;0.60;98.80;;;-2.63;100.00;101665.50;4991904;28;20057;-77
2021/12/21 02:31:17;;;;;;;23.90;10.93;;;0.50;99.00;;;-2.61;100.00;101657.41;4990029;28;20069;-77
2021/12/21 02:33:47;;;;;;;27.50;11.90;;;0.50;99.10;;;-2.63;100.00;101659.28;4991041;28;20054;-77
2021/12/21 02:36:16;;;;;;;25.17;11.18;;;0.50;99.10;;;-2.63;100.00;101654.84;4991127;28;20129;-77
2021/12/21 02:38:43;;;;;;;25.67;11.85;;;0.50;99.00;;;-2.64;100.00;101654.91;4991291;28;20046;-77
2021/12/21 02:41:11;;;;;;;25.45;10.90;;;0.50;98.90;;;-2.76;100.00;101651.88;4990833;28;20121;-77
2021/12/21 02:43:38;;;;;;;23.40;11.27;;;0.50;98.60;;;-2.76;100.00;101656.31;4991032;28;20050;-77
2021/12/21 02:46:07;;;;;;;28.77;10.95;;;0.50;98.80;;;-2.76;100.00;101658.97;4990850;28;20430;-77
2021/12/21 02:48:34;;;;;;;26.65;10.70;;;0.40;98.70;;;-2.72;100.00;101651.69;4990948;28;20050;-77
2021/12/21 02:51:02;;;;;;;25.77;11.73;;;0.40;98.90;;;-2.71;100.00;101658.78;4990507;28;20050;-77
2021/12/21 02:53:31;;;;;;;28.08;12.38;;;0.40;99.00;;;-2.70;100.00;101660.50;4988952;28;20085;-77
2021/12/21 02:55:58;;;;;;;28.60;11.00;;;0.40;99.00;;;-2.75;100.00;101658.91;4990935;28;20149;-77
2021/12/21 02:58:25;;;;;;;22.13;10.63;;;0.30;98.90;;;-2.78;100.00;101659.06;4990811;28;20442;-77
2021/12/21 03:00:54;;;;;;;23.05;10.63;;;0.40;98.80;;;-2.71;100.00;101656.13;4991525;28;20085;-77
2021/12/21 03:03:22;;;;;;;28.15;11.55;;;0.40;99.00;;;-2.71;100.00;101648.97;4972857;28;20046;-77
2021/12/21 03:05:52;;;;;;;23.85;10.70;;;0.40;99.20;;;-2.78;100.00;101659.06;4990846;28;20126;-77
2021/12/21 03:08:22;;;;;;;26.67;11.60;;;0.40;99.00;;;-2.81;100.00;101647.69;4990725;28;20215;-77
2021/12/21 03:11:04;;;;;;;25.57;10.90;;;0.40;98.60;;;-2.89;100.00;101650.69;4990677;28;20058;-77
2021/12/21 03:16:18;;;;;;;25.13;11.00;;;0.40;98.40;;;-3.02;100.00;101649.53;4990381;28;20066;-77
2021/12/21 03:18:45;;;;;;;27.63;11.73;;;0.30;98.40;;;-3.00;100.00;101648.50;4990413;28;20074;-77
2021/12/21 03:21:13;;;;;;;24.13;10.63;;;0.20;98.40;;;-3.01;100.00;101643.25;4990134;28;20046;-77
2021/12/21 03:23:41;;;;;;;22.27;10.63;;;0.40;98.70;;;-3.06;100.00;101645.28;4990075;28;20518;-77
2021/12/21 03:26:10;;;;;;;24.67;11.23;;;0.20;98.40;;;-3.02;100.00;101638.88;4990233;28;20391;-77
2021/12/21 03:28:37;;;;;;;26.52;11.68;;;0.20;98.50;;;-3.04;100.00;101640.75;4990119;28;20125;-77
2021/12/21 03:31:05;;;;;;;22.88;10.77;;;0.40;98.50;;;-3.04;100.00;101640.75;4989992;28;20046;-77
2021/12/21 03:33:32;;;;;;;27.83;11.70;;;0.20;98.30;;;-3.03;100.00;101637.13;4990061;28;20057;-77
2021/12/21 03:36:00;;;;;;;33.55;12.25;;;0.20;98.50;;;-3.03;100.00;101642.47;4990122;28;20073;-77
2021/12/21 03:38:28;;;;;;;28.60;11.20;;;0.20;98.40;;;-3.05;100.00;101641.66;4989690;28;20057;-77
2021/12/21 03:41:02;;;;;;;26.88;10.82;;;0.20;98.50;;;-3.09;100.00;101637.41;4990091;28;20060;-77
2021/12/21 03:43:31;;;;;;;24.95;10.75;;;0.20;98.30;;;-3.08;100.00;101634.69;4990012;28;20438;-77
2021/12/21 03:46:07;;;;;;;22.10;10.95;;;0.20;98.50;;;-3.15;100.00;101639.41;4990189;28;20078;-77
2021/12/21 03:48:34;;;;;;;20.95;10.43;;;0.10;98.40;;;-3.09;100.00;101638.28;4989776;28;20053;-77
2021/12/21 03:51:02;;;;;;;22.90;11.50;;;0.10;98.60;;;-3.07;100.00;101635.53;4989512;28;20042;-77
2021/12/21 03:53:29;;;;;;;24.83;10.60;;;0.10;98.60;;;-3.08;100.00;101637.34;4989689;28;20042;-77
2021/12/21 03:56:10;;;;;;;28.33;12.27;;;0.10;98.60;;;-3.15;100.00;101639.41;4989700;28;20129;-77
2021/12/21 03:58:38;;;;;;;25.83;11.10;;;0.00;98.50;;;-3.06;100.00;101638.16;4989717;28;20484;-77
2021/12/21 04:01:06;;;;;;;22.38;11.05;;;0.10;98.80;;;-2.95;100.00;101635.00;4989147;28;20109;-77
2021/12/21 04:03:33;;;;;;;20.50;10.82;;;0.10;99.00;;;-3.03;100.00;101638.00;4989559;28;20050;-77
2021/12/21 04:06:01;;;;;;;24.38;11.13;;;0.10;98.80;;;-3.13;100.00;101630.50;4989638;28;20104;-77
2021/12/21 04:08:28;;;;;;;26.00;11.20;;;0.10;98.70;;;-3.05;100.00;101625.69;4994631;28;20150;-77
2021/12/21 04:10:55;;;;;;;23.90;10.50;;;0.00;98.90;;;-3.03;100.00;101629.16;5009151;28;20037;-77
2021/12/21 04:13:23;;;;;;;25.38;10.57;;;0.00;99.00;;;-2.95;100.00;101629.69;5009020;28;20140;-77
2021/12/21 04:15:53;;;;;;;26.27;10.00;;;0.10;99.40;;;-2.91;100.00;101636.59;5009044;28;20506;-77
2021/12/21 04:18:23;;;;;;;22.52;9.93;;;0.10;99.40;;;-2.85;100.00;101633.63;5009151;28;20046;-78
2021/12/21 04:20:50;;;;;;;21.75;10.35;;;0.10;99.80;;;-2.95;100.00;101635.00;5008941;28;20041;-77
2021/12/21 04:23:18;;;;;;;25.17;10.48;;;0.10;99.70;;;-2.92;100.00;101641.97;5008517;28;20042;-77
2021/12/21 04:25:46;;;;;;;24.13;10.70;;;0.10;99.70;;;-2.89;100.00;101634.72;5008847;28;20042;-77
2021/12/21 04:28:13;;;;;;;23.98;11.02;;;0.10;99.90;;;-2.87;100.00;101638.19;4993649;28;20125;-77
2021/12/21 04:30:41;;;;;;;20.88;10.57;;;0.10;99.90;;;-2.87;100.00;101630.19;4989177;28;20125;-77
2021/12/21 04:33:09;;;;;;;31.50;11.02;;;0.10;99.90;;;-2.88;100.00;101644.41;4988682;28;20415;-77
2021/12/21 04:35:36;;;;;;;22.17;10.57;;;0.10;99.80;;;-2.88;100.00;101631.09;4989477;28;20478;-77
2021/12/21 04:38:20;;;;;;;21.30;10.13;;;0.10;99.80;;;-2.84;100.00;101624.69;4989281;28;20054;-77
2021/12/21 04:40:50;;;;;;;23.67;10.65;;;0.10;99.90;;;-2.85;100.00;101628.31;4988912;28;20054;-77
2021/12/21 04:43:17;;;;;;;25.33;10.18;;;0.10;99.90;;;-2.84;100.00;101622.03;4988904;28;20050;-77
2021/12/21 04:45:45;;;;;;;21.80;10.20;;;0.10;99.90;;;-2.85;100.00;101622.97;4989126;28;20121;-77
2021/12/21 04:48:13;;;;;;;20.35;9.85;;;0.10;99.90;;;-2.81;100.00;101613.91;4989316;28;20085;-77
2021/12/21 04:50:41;;;;;;;18.20;10.23;;;0.20;99.90;;;-2.75;100.00;101618.94;4990141;28;20474;-77
2021/12/21 04:53:08;;;;;;;21.60;10.55;;;0.30;99.90;;;-2.76;100.00;101608.34;4992359;28;20052;-77
2021/12/21 04:55:36;;;;;;;26.83;10.15;;;0.10;99.90;;;-2.78;100.00;101611.13;4993146;28;20132;-77
2021/12/21 04:58:04;;;;;;;20.02;10.18;;;0.20;99.90;;;-2.81;100.00;101608.59;4992855;28;20479;-78
2021/12/21 05:00:32;;;;;;;27.08;10.65;;;0.20;99.80;;;-2.75;100.00;101616.28;4993105;28;20077;-77
2021/12/21 05:02:59;;;;;;;21.27;10.80;;;0.20;99.70;;;-2.79;100.00;101609.38;4992055;28;20057;-77
2021/12/21 05:05:28;;;;;;;21.73;10.38;;;0.30;99.90;;;-2.78;100.00;101618.22;4992827;28;20082;-77
2021/12/21 05:08:06;;;;;;;19.75;10.35;;;0.10;99.90;;;-2.80;100.00;101613.00;4993009;28;20077;-77
2021/12/21 05:10:37;;;;;;;21.52;11.07;;;0.10;99.90;;;-2.80;100.00;101625.41;4975312;28;20582;-78
2021/12/21 05:13:05;;;;;;;25.50;11.82;;;0.10;99.90;;;-2.89;100.00;101623.19;4992500;28;20050;-78
2021/12/21 05:15:32;;;;;;;26.23;10.77;;;0.10;99.90;;;-2.84;100.00;101621.19;4975198;28;20430;-77
2021/12/21 05:17:59;;;;;;;23.95;12.30;;;0.10;99.90;;;-2.78;100.00;101621.78;4992711;28;20133;-79
2021/12/21 05:20:28;;;;;;;23.92;11.70;;;0.10;99.90;;;-2.82;100.00;101630.84;4992817;28;20521;-78
2021/12/21 05:22:56;;;;;;;23.63;11.65;;;0.10;99.90;;;-2.90;100.00;101630.31;4992441;28;20413;-78
2021/12/21 05:25:23;;;;;;;19.52;10.35;;;0.10;99.90;;;-2.91;100.00;101628.59;4992677;28;20046;-77
2021/12/21 05:27:50;;;;;;;22.58;10.23;;;0.10;99.90;;;-3.06;100.00;101631.97;4992545;28;20149;-78
2021/12/21 05:30:18;;;;;;;28.20;11.40;;;0.00;99.50;;;-3.13;100.00;101636.69;4992387;28;20463;-78
2021/12/21 05:32:45;;;;;;;23.13;11.00;;;0.00;99.10;;;-3.16;100.00;101627.06;4992154;28;20873;-78
2021/12/21 05:35:12;;;;;;;24.83;11.30;;;0.00;98.90;;;-3.27;100.00;101634.66;4992514;28;20575;-78
2021/12/21 05:37:41;;;;;;;26.02;11.30;;;-0.10;98.70;;;-3.28;100.00;101632.91;4992179;28;20038;-78
2021/12/21 05:40:12;;;;;;;23.80;11.13;;;0.00;98.70;;;-3.29;100.00;101635.63;4992232;28;20048;-79
2021/12/21 05:42:40;;;;;;;22.88;10.60;;;-0.10;98.70;;;-3.40;100.00;101633.47;4989578;28;20053;-78
2021/12/21 05:45:10;;;;;;;24.02;11.05;;;-0.10;98.60;;;-3.38;100.00;101642.25;4991690;28;20050;-78
2021/12/21 05:47:38;;;;;;;24.00;10.73;;;-0.10;98.60;;;-3.39;100.00;101645.81;4992223;28;20049;-78
2021/12/21 05:50:08;;;;;;;27.95;12.25;;;-0.10;98.60;;;-3.23;100.00;101636.22;4992224;28;20046;-77
2021/12/21 05:52:36;;;;;;;24.40;11.43;;;-0.20;99.00;;;-3.17;100.00;101640.41;4992008;28;20050;-78
2021/12/21 05:55:06;;;;;;;21.38;10.70;;;-0.30;99.40;;;-3.16;100.00;101637.69;4992169;28;20150;-78
2021/12/21 05:57:35;;;;;;;24.87;11.40;;;-0.10;99.50;;;-3.17;100.00;101640.41;4991763;28;20077;-78
2021/12/21 06:00:04;;;;;;;20.77;10.77;;;-0.10;99.50;;;-3.28;100.00;101638.22;4991928;28;20404;-79
2021/12/21 06:02:32;;;;;;;27.10;11.95;;;-0.10;99.30;;;-3.26;100.00;101640.81;4994151;28;20145;-80
2021/12/21 06:04:59;;;;;;;24.83;11.48;;;-0.10;99.40;;;-3.19;100.00;101634.31;5030985;22;20057;-84
2021/12/21 06:07:34;;;;;;;28.00;12.38;;;-0.20;99.50;;;-3.21;100.00;101629.03;5030825;28;20056;-84
2021/12/21 06:10:11;;;;;;;27.95;11.30;;;-0.10;99.50;;;-3.24;100.00;101629.16;5030668;28;20049;-82
2021/12/21 06:12:56;;;;;;;23.30;11.93;;;-0.10;99.40;;;-3.22;100.00;101630.00;5030510;28;20552;-83
2021/12/21 06:15:32;;;;;;;24.58;11.55;;;-0.10;99.40;;;-3.28;100.00;101627.56;5030640;28;20395;-83
2021/12/21 06:24:34;;;;;;;26.42;12.63;;;-0.20;99.40;;;-3.37;100.00;101643.94;5023843;28;20409;-84
2021/12/21 06:26:45;;;;;;;23.40;11.38;;;-0.20;99.00;;;-3.28;100.00;101629.38;5029112;28;20058;-84
2021/12/21 06:29:13;;;;;;;26.70;11.27;;;-0.20;99.10;;;-3.28;100.00;101640.88;5030571;28;20038;-83
2021/12/21 06:31:41;;;;;;;24.85;11.70;;;-0.30;99.30;;;-3.31;100.00;101643.72;5029950;28;20095;-82
2021/12/21 06:34:08;;;;;;;25.23;12.02;;;-0.30;99.20;;;-3.45;100.00;101643.44;5029282;28;20080;-82
2021/12/21 06:36:36;;;;;;;26.77;11.93;;;-0.30;98.90;;;-3.51;100.00;101641.03;5030600;28;20049;-82
2021/12/21 06:39:06;;;;;;;23.67;11.65;;;-0.30;98.70;;;-3.58;100.00;101641.31;5020696;28;20120;-81
2021/12/21 06:41:34;;;;;;;28.98;12.00;;;-0.30;98.60;;;-3.51;100.00;101654.34;5026908;28;20131;-82
2021/12/21 06:44:04;;;;;;;23.55;10.88;;;-0.30;99.00;;;-3.50;100.00;101648.06;5029631;28;20049;-81
2021/12/21 06:46:49;;;;;;;25.50;11.67;;;-0.30;99.30;;;-3.51;100.00;101651.69;5029624;28;20128;-81
2021/12/21 06:52:02;;;;;;;24.08;11.98;;;-0.40;98.50;;;-3.63;100.00;101645.97;5028916;28;20110;-82
2021/12/21 06:54:30;;;;;;;23.17;11.73;;;-0.40;98.60;;;-3.66;100.00;101645.22;5029294;28;20076;-82
2021/12/21 06:56:58;;;;;;;23.90;11.90;;;-0.40;98.40;;;-3.58;100.00;101645.75;5029463;28;20064;-82
2021/12/21 06:59:27;;;;;;;28.33;11.75;;;-0.40;98.80;;;-3.57;100.00;101642.16;5029245;28;20053;-82
2021/12/21 07:01:55;;;;;;;25.17;11.95;;;-0.40;98.90;;;-3.54;100.00;101642.06;5028936;28;20049;-82
2021/12/21 07:04:23;;;;;;;24.65;12.75;;;-0.40;98.90;;;-3.55;100.00;101642.97;5028947;28;20136;-81
2021/12/21 07:06:52;;;;;;;26.67;12.23;;;-0.40;98.80;;;-3.36;100.00;101640.38;5028751;28;20564;-82
2021/12/21 07:09:24;;;;;;;27.58;12.25;;;-0.40;99.30;;;-3.29;100.00;101641.84;5027962;28;20048;-82
2021/12/21 07:12:07;;;;;;;27.25;11.77;;;-0.40;99.60;;;-3.24;100.00;101646.94;5028023;28;20052;-81
2021/12/21 07:20:09;;;;;;;26.63;11.38;;;-0.40;99.40;;;-3.44;100.00;101658.47;5026327;28;20765;-82
2021/12/21 07:22:36;;;;;;;25.58;12.40;;;-0.50;99.40;;;-3.50;100.00;101659.59;5028355;28;20072;-86
2021/12/21 07:25:05;;;;;;;26.27;12.85;;;-0.40;99.40;;;-3.49;100.00;101660.47;5028349;28;20195;-87
2021/12/21 07:27:33;;;;;;;25.67;11.85;;;-0.40;99.30;;;-3.47;100.00;101654.13;5028917;28;20583;-89
2021/12/21 07:30:01;;;;;;;31.52;14.18;;;-0.30;99.40;;;-3.50;100.00;101648.97;5028508;28;20053;-88
2021/12/21 07:32:28;;;;;;;29.17;13.40;;;-0.40;99.10;;;-3.38;100.00;101652.88;5010778;28;20660;-82
2021/12/21 07:34:56;;;;;;;32.10;13.00;;;-0.30;99.50;;;-3.35;100.00;101647.41;5027611;28;20517;-86
2021/12/21 07:37:25;;;;;;;24.85;12.50;;;-0.30;99.30;;;-3.31;100.00;101653.47;5025158;28;20041;-84
2021/12/21 07:39:52;;;;;;;26.05;12.10;;;-0.30;99.30;;;-3.29;100.00;101651.59;5028218;28;20489;-83
2021/12/21 07:42:20;;;;;;;25.50;12.50;;;-0.30;99.50;;;-3.31;100.00;101653.47;5028580;28;20148;-85
2021/12/21 07:44:49;;;;;;;23.40;11.43;;;-0.30;99.50;;;-3.32;100.00;101649.09;5010292;28;20131;-87
2021/12/21 07:47:19;;;;;;;25.17;11.82;;;-0.20;99.40;;;-3.31;100.00;101654.34;5028022;28;20111;-87
2021/12/21 07:49:46;;;;;;;24.92;12.10;;;-0.30;99.40;;;-3.27;100.00;101649.75;5028329;28;20552;-86
2021/12/21 07:52:15;;;;;;;27.52;12.45;;;-0.30;99.40;;;-3.34;100.00;101650.00;5027737;28;20579;-84
2021/12/21 07:54:43;;;;;;;20.73;10.98;;;-0.40;99.30;;;-3.34;100.00;101649.16;5028002;28;20050;-85
2021/12/21 07:57:10;;;;;;;24.95;11.02;;;-0.30;99.40;;;-3.35;100.00;101658.94;5028096;28;20045;-84
2021/12/21 07:59:40;;;;;;;26.17;11.95;;;-0.40;99.30;;;-3.30;100.00;101650.75;5028307;28;20140;-83
2021/12/21 08:02:10;;;;;;;;;;;-0.40;99.30;;;-3.34;100.00;101659.81;5027936;28;20084;-83
2021/12/21 08:04:41;;;;;;;23.17;11.13;;;-0.40;99.10;;;-3.42;100.00;101661.94;5028081;28;19948;-83
2021/12/21 08:07:12;;;;;;;26.02;12.23;;;-0.40;99.30;;;-3.43;100.00;101658.38;5028370;28;20445;-82
2021/12/21 08:09:44;;;;;;;22.15;11.52;;;-0.40;99.30;;;-3.37;100.00;101665.25;5027898;28;20048;-82
2021/12/21 08:12:15;;;;;;;22.52;11.40;;;-0.40;99.50;;;-3.28;100.00;101654.19;5028123;28;20041;-82
2021/12/21 08:14:43;;;;;;;27.85;12.10;;;-0.40;99.90;;;-3.23;100.00;101649.53;5028414;28;20057;-81
2021/12/21 08:17:11;;;;;;;23.02;12.05;;;-0.40;99.90;;;-3.30;100.00;101650.75;5028185;28;20139;-87
2021/12/21 08:19:40;;;;;;;22.70;11.52;;;-0.40;99.90;;;-3.29;100.00;101652.47;5028544;28;20121;-85
2021/12/21 08:22:07;;;;;;;20.98;11.15;;;-0.30;99.80;;;-3.23;100.00;101657.53;5028100;28;20134;-84
2021/12/21 08:24:34;;;;;;;25.05;11.43;;;-0.30;99.90;;;-3.12;100.00;101659.72;5028302;28;20081;-85
2021/12/21 08:27:04;;;;;;;21.85;11.20;;;-0.30;99.90;;;-3.01;100.00;101664.56;5027844;28;20132;-84
2021/12/21 08:29:31;;;;;;;23.95;10.88;;;-0.30;99.90;;;-2.98;100.00;101661.75;5028536;28;20124;-84
2021/12/21 08:31:59;;;;;;;23.58;12.05;;;-0.30;99.90;;;-2.89;100.00;101663.13;5027620;28;20140;-88
2021/12/21 08:34:26;;;;;;;23.55;12.73;;;-0.30;99.90;;;-2.90;100.00;101664.09;5028038;28;20582;-86
2021/12/21 08:36:55;;;;;;;22.35;11.93;;;-0.20;99.90;;;-2.87;100.00;101662.16;5027564;28;20084;-86
2021/12/21 08:39:24;;;;;;;23.05;11.77;;;-0.10;99.90;;;-2.89;100.00;101663.13;5009557;28;20041;-82
2021/12/21 08:41:56;;;;;;;26.48;11.63;;;-0.10;99.90;;;-2.90;100.00;101659.59;5027749;28;20597;-85
2021/12/21 08:44:25;;;;;;;23.30;12.23;;;-0.20;99.90;;;-2.92;100.00;101658.81;5010184;28;20577;-83
2021/12/21 08:46:52;;;;;;;24.17;11.60;;;-0.10;99.90;;;-2.92;100.00;101666.81;5027967;28;20049;-82
2021/12/21 08:49:20;;;;;;;24.27;11.55;;;-0.10;99.90;;;-2.82;100.00;101656.59;5027508;28;20486;-83
2021/12/21 08:51:47;;;;;;;24.42;12.70;;;-0.10;99.90;;;-2.60;100.00;101667.13;5009795;28;20053;-85
2021/12/21 08:54:18;;;;;;;24.77;11.35;;;-0.10;99.90;;;-2.49;100.00;101664.84;5027162;28;20052;-94
2021/12/21 08:56:48;;;;;;;49.80;13.98;;;-0.10;99.90;;;-2.56;100.00;101663.38;5027864;28;20042;-88
2021/12/21 08:59:16;;;;;;;25.98;11.88;;;-0.10;99.90;;;-2.54;100.00;101671.31;5027692;28;20080;-83
2021/12/21 09:01:43;;;;;;;25.70;12.38;;;-0.10;99.90;;;-2.55;100.00;101667.81;5010513;28;20045;-87
2021/12/21 09:04:11;;;;;;;31.05;12.10;;;-0.10;99.90;;;-2.55;100.00;101654.47;5010242;28;20089;-83
2021/12/21 09:06:38;;;;;;;25.83;11.60;;;-0.10;99.90;;;-2.54;100.00;101661.50;5028770;28;20497;-91
2021/12/21 09:09:06;;;;;;;22.05;11.63;;;0.00;99.90;;;-2.48;100.00;101666.56;5010114;28;20053;-90
2021/12/21 09:11:35;;;;;;;29.02;11.88;;;0.00;99.90;;;-2.35;100.00;101666.84;5027832;28;20049;-85
2021/12/21 09:14:02;;;;;;;24.50;11.48;;;-0.10;99.90;;;-2.38;100.00;101659.88;5009527;28;20128;-90
2021/12/21 09:16:29;;;;;;;30.52;12.13;;;-0.10;99.90;;;-2.36;100.00;101655.31;5027867;28;20045;-87
2021/12/21 09:18:57;;;;;;;25.02;11.50;;;0.00;99.90;;;-2.33;100.00;101659.63;5025260;28;20073;-87
2021/12/21 09:21:24;;;;;;;31.33;13.30;;;0.00;99.90;;;-2.31;100.00;101670.22;5008249;28;20054;-87
2021/12/21 09:24:00;;;;;;;39.20;12.45;;;0.00;99.90;;;-2.26;100.00;101661.06;5027812;28;20528;-92
2021/12/21 09:26:28;;;;;;;69.82;13.98;;;0.10;99.90;;;-2.19;100.00;101661.63;5010283;28;20421;-89
2021/12/21 09:28:57;;;;;;;31.90;13.65;;;0.10;99.90;;;-2.15;100.00;101652.56;5027252;28;20045;-81
2021/12/21 09:31:24;;;;;;;26.10;12.60;;;0.20;99.90;;;-2.14;100.00;101653.44;5027355;28;20049;-86
2021/12/21 09:33:51;;;;;;;28.33;13.63;;;0.20;99.90;;;-2.15;100.00;101652.56;5009412;28;20140;-85
2021/12/21 09:36:19;;;;;;;23.20;12.23;;;0.20;99.90;;;-2.06;100.00;101660.09;5027906;28;20099;-86
2021/12/21 09:38:46;;;;;;;22.05;11.85;;;0.20;99.90;;;-2.03;100.00;101662.63;5031081;28;20038;-85
2021/12/21 09:41:14;;;;;;;24.42;11.88;;;0.30;99.90;;;-1.97;100.00;101656.97;5030873;28;20041;-85
2021/12/21 09:43:41;;;;;;;26.77;11.68;;;0.30;99.90;;;-1.91;100.00;101660.28;5030602;28;20552;-85
2021/12/21 09:46:10;;;;;;;24.83;11.10;;;0.40;99.90;;;-1.85;100.00;101666.16;5031090;28;20052;-85
2021/12/21 09:48:38;;;;;;;24.73;11.75;;;0.40;99.90;;;-1.84;100.00;101648.38;5030293;28;20188;-86
2021/12/21 09:51:06;;;;;;;26.92;12.65;;;0.40;99.90;;;-1.75;100.00;101655.94;5030479;28;20049;-85
2021/12/21 09:53:36;;;;;;;21.33;11.27;;;0.50;99.90;;;-1.73;100.00;101659.38;5030056;28;20077;-85
2021/12/21 09:56:05;;;;;;;23.83;11.70;;;0.50;99.90;;;-1.68;100.00;101660.00;5030301;28;20041;-86
2021/12/21 09:58:32;;;;;;;20.45;10.02;;;0.50;99.90;;;-1.66;100.00;101651.91;5030853;28;20135;-88
2021/12/21 10:01:00;;;;;;;23.52;10.88;;;0.60;99.90;;;-1.63;100.00;101651.78;5029795;28;20096;-87
2021/12/21 10:03:29;;;;;;;23.63;12.27;;;0.60;99.90;;;-1.55;100.00;101651.38;5030277;28;20178;-83
2021/12/21 10:06:06;;;;;;;19.65;10.68;;;0.60;99.90;;;-1.50;100.00;101655.53;5030743;28;20103;-87
2021/12/21 10:08:34;;;;;;;20.60;11.13;;;0.70;99.90;;;-1.47;100.00;101662.53;5030297;28;20049;-86
2021/12/21 10:11:02;;;;;;;24.20;11.75;;;0.70;99.90;;;-1.45;100.00;101660.63;5030080;28;20124;-87
2021/12/21 10:13:30;;;;;;;18.90;10.95;;;0.70;99.90;;;-1.43;100.00;101656.97;5029674;28;20049;-86
2021/12/21 10:16:00;;;;;;;22.17;12.02;;;0.70;99.90;;;-1.39;100.00;101652.31;5030315;28;20614;-87
2021/12/21 10:18:32;;;;;;;27.30;11.13;;;0.70;99.90;;;-1.39;100.00;101649.63;5030673;28;20079;-86
2021/12/21 10:21:02;;;;;;;24.52;11.57;;;0.80;99.90;;;-1.32;100.00;101650.19;5029595;28;20072;-86
2021/12/21 10:23:33;;;;;;;20.63;10.65;;;0.80;99.90;;;-1.28;100.00;101638.41;5011544;28;20135;-86
2021/12/21 10:26:04;;;;;;;26.57;12.70;;;1.10;99.90;;;-1.23;100.00;101645.22;5029425;28;20140;-86
2021/12/21 10:28:36;;;;;;;24.15;10.68;;;0.90;99.90;;;-1.19;100.00;101637.91;5029491;28;20046;-87
2021/12/21 10:31:07;;;;;;;23.17;11.00;;;0.90;99.90;;;-1.10;100.00;101629.44;5029833;28;20132;-86
2021/12/21 10:33:39;;;;;;;22.58;11.48;;;1.00;99.90;;;-1.06;100.00;101627.47;5030459;28;20088;-87
2021/12/21 10:36:09;;;;;;;21.05;11.35;;;1.00;99.90;;;-1.00;100.00;101625.31;5029609;28;20072;-87